»·PEaware :: N143VT KMFR-KSFO

N143VT :: KMFR-KSFO

FLIGHT INFORMATION

Flight Status: Arrived
Operator: Privately registered:
United States
More flights under this callsign
Pilot: Anonymous 16492 (16492)
Aircraft: BOMBARDIER BD-100 CHALLENGER 300
(CL30)
More flights by this aircraft type
Origin: KMFR Rogue Valley Intl-Medford
United States
Destination: KSFO San Francisco Intl
United States
More flights between these airports :: More routes between these airports
Route: GNATS7 GNATS V122 OLECY FINER Q3 FOWND MLBEC BDEGA3
File this flight plan on PilotEdge
Remarks:
Altitude:
(Current/Filed)
32,000ft
Speed:
(Current/Filed)
440kts
Departed: 02-Oct-18 05:45 PM
Arrived: 02-Oct-18 06:44 PM
Distance/Time
Traveled:
286nm/0:58
Distance/Time
To Go:
Arrived

Flight Plot

Page will automatically refresh every two minutes.

Flight plan parsing failed; only flown route is shown


Map Options




Map Legend


Flown Route
Filed Route
Departure Airport
Arrival Airport
Navaid (VOR, NDB)
Fix

Horizontal Profiles

Position Reports

Time Latitude Longitude Heading Altitude Ground
Speed
02-Oct-18 17:26 42.379210 -122.878493 58 1339ft 0kts
02-Oct-18 17:27 42.379210 -122.878493 58 1339ft 0kts
02-Oct-18 17:28 42.379210 -122.878493 58 1339ft 0kts
02-Oct-18 17:29 42.379210 -122.878493 58 1339ft 0kts
02-Oct-18 17:30 42.379210 -122.878493 58 1339ft 0kts
02-Oct-18 17:31 42.379210 -122.878493 58 1339ft 0kts
02-Oct-18 17:32 42.379210 -122.878493 58 1339ft 0kts
02-Oct-18 17:33 42.379210 -122.878493 58 1339ft 0kts
02-Oct-18 17:34 42.379210 -122.878493 58 1339ft 0kts
02-Oct-18 17:35 42.379210 -122.878493 58 1339ft 0kts
02-Oct-18 17:36 42.379210 -122.878493 58 1339ft 0kts
02-Oct-18 17:37 42.379210 -122.878493 58 1339ft 0kts
02-Oct-18 17:38 42.379210 -122.878493 58 1339ft 0kts
02-Oct-18 17:39 42.379210 -122.878493 58 1339ft 0kts
02-Oct-18 17:40 42.379210 -122.878493 58 1339ft 0kts
02-Oct-18 17:41 42.376878 -122.876933 157 1339ft 15kts
02-Oct-18 17:42 42.375498 -122.875159 159 1339ft 11kts
02-Oct-18 17:43 42.366946 -122.870610 158 1340ft 38kts
02-Oct-18 17:44 42.363612 -122.868636 102 1339ft 0kts
02-Oct-18 17:45 42.363612 -122.868636 102 1339ft 0kts
02-Oct-18 17:46 42.363702 -122.868030 72 1339ft 13kts
02-Oct-18 17:47 42.375133 -122.873458 336 1501ft 147kts
02-Oct-18 17:48 42.407116 -122.946696 289 3752ft 319kts
02-Oct-18 17:49 42.400817 -123.048296 240 10719ft 280kts
02-Oct-18 17:50 42.356863 -123.143155 236 10991ft 309kts
02-Oct-18 17:51 42.280198 -123.170313 180 13711ft 302kts
02-Oct-18 17:52 42.194169 -123.162853 177 17365ft 325kts
02-Oct-18 17:53 42.102077 -123.150261 176 20403ft 349kts
02-Oct-18 17:54 42.003339 -123.135103 175 23112ft 369kts
02-Oct-18 17:55 41.899587 -123.118668 175 25492ft 388kts
02-Oct-18 17:56 41.791135 -123.101378 174 27612ft 404kts
02-Oct-18 17:57 41.678721 -123.083474 173 29532ft 418kts
02-Oct-18 17:58 41.562161 -123.064958 173 31256ft 430kts
02-Oct-18 17:59 41.440390 -123.045673 172 31959ft 456kts
02-Oct-18 18:00 41.315401 -123.029331 178 31963ft 461kts
02-Oct-18 18:01 41.187311 -123.024804 178 31966ft 465kts
02-Oct-18 18:02 41.058566 -123.020767 179 31936ft 469kts
02-Oct-18 18:03 40.928852 -123.016868 179 31870ft 469kts
02-Oct-18 18:04 40.802651 -123.013094 179 31872ft 466kts
02-Oct-18 18:05 40.674287 -123.009272 179 31866ft 464kts
02-Oct-18 18:06 40.546113 -123.005452 179 31873ft 463kts
02-Oct-18 18:07 40.418908 -123.001686 179 31872ft 462kts
02-Oct-18 18:08 40.291356 -122.997918 179 31874ft 461kts
02-Oct-18 18:09 40.164039 -122.994176 179 31871ft 461kts
02-Oct-18 18:10 40.037014 -122.990457 179 31880ft 461kts
02-Oct-18 18:11 39.909699 -122.986752 179 31880ft 461kts
02-Oct-18 18:12 39.783327 -122.983073 179 31882ft 461kts
02-Oct-18 18:13 39.659744 -122.979496 179 31892ft 460kts
02-Oct-18 18:14 39.532648 -122.975832 179 31887ft 460kts
02-Oct-18 18:15 39.407107 -122.972216 179 31889ft 460kts
02-Oct-18 18:16 39.280837 -122.968590 179 31606ft 456kts
02-Oct-18 18:17 39.154660 -122.964973 180 29764ft 456kts
02-Oct-18 18:18 39.032268 -122.962093 180 28902ft 435kts
02-Oct-18 18:19 38.917558 -122.959812 180 28878ft 402kts
02-Oct-18 18:20 38.818307 -122.941013 169 28113ft 390kts
02-Oct-18 18:21 38.713436 -122.910871 168 26495ft 392kts
02-Oct-18 18:22 38.608570 -122.880136 168 25177ft 383kts
02-Oct-18 18:23 38.506859 -122.850241 168 23812ft 375kts
02-Oct-18 18:24 38.406628 -122.820800 168 22425ft 367kts
02-Oct-18 18:25 38.308749 -122.792115 168 21019ft 359kts
02-Oct-18 18:26 38.213105 -122.764171 168 19575ft 351kts
02-Oct-18 18:27 38.119707 -122.737008 168 17734ft 341kts
02-Oct-18 18:28 38.029300 -122.710787 167 15538ft 330kts
02-Oct-18 18:29 37.941443 -122.685366 167 13553ft 321kts
02-Oct-18 18:30 37.867840 -122.635613 143 12318ft 298kts
02-Oct-18 18:31 37.807230 -122.573910 142 11320ft 279kts
02-Oct-18 18:32 37.750669 -122.514969 142 11003ft 256kts
02-Oct-18 18:33 37.695006 -122.456223 142 10997ft 270kts
02-Oct-18 18:34 37.636611 -122.394362 142 10984ft 280kts
02-Oct-18 18:35 37.571380 -122.344245 153 10113ft 279kts
02-Oct-18 18:36 37.505082 -122.297013 153 8435ft 274kts
02-Oct-18 18:37 37.439600 -122.251441 154 6560ft 268kts
02-Oct-18 18:38 37.430533 -122.180327 27 5207ft 251kts
02-Oct-18 18:39 37.485653 -122.147583 21 4292ft 201kts
02-Oct-18 18:40 37.528467 -122.171049 323 3202ft 163kts
02-Oct-18 18:41 37.553984 -122.215510 297 2508ft 142kts
02-Oct-18 18:42 37.571555 -122.257207 297 1796ft 138kts
02-Oct-18 18:43 37.586821 -122.293474 298 1133ft 109kts
02-Oct-18 18:44 37.602158 -122.329967 298 522ft 122kts
02-Oct-18 18:45 37.616800 -122.364984 298 20ft 90kts
02-Oct-18 18:46 37.623542 -122.380927 300 19ft 29kts
02-Oct-18 18:47 37.625847 -122.383714 343 19ft 0kts
02-Oct-18 18:48 37.626506 -122.384424 308 19ft 14kts
02-Oct-18 18:49 37.627338 -122.383868 114 19ft 0kts

Navigation Log

Ident Type
Flight plan parsing failed, navigation log unavailable